ROMMA est une association bénévole à but non lucratif. Votre soutien est indispensable : ADHERER à ROMMA ou FAIRE un DON

Engins - (38, Isère)

Vercors (906 m)   Longitude: 05° 37' E   Latitude: 45° 11' N Station partenaire n°139
 

Détail journalier du     <<     >>

Température Precipitation Humidité Vent Dir Rafale Dir. rafale Ensol.
Heure (°C) (mm) (%) (km/h) (km/h) (min)
01:00 11.50837SSO16S0
02:00 10.90874SO11OSO0
03:00 10.40894OSO10SSO0
04:00 10.20885SO11S0
05:00 10.50855SO11OSO0
06:00 10.20854SO10OSO0
07:00 10.20814O13SO0
08:00 11.40763S16SSO0
09:00 13.90721NNO6ENE35
10:00 15.60712NE6ESE60
11:00 15.20722ENE5ENE45
12:00 16.40702ENE6ENE55
13:00 16.50682E8ENE55
14:00 17.80671ENE6E60
15:00 17.10692NNE6ENE55
16:00 16.10731ENE5ESE20
17:00 14.10781NNO6N0
18:00 12.90801NO5NO0
19:00 13.00792NNO8NNO0
20:00 13.30792NNO5NNO0
21:00 13.30793NNO6NNO0
22:00 13.00804SSO11SSO0
23:00 12.80803SSO10S0
minuit 13.10793SO8SSO0

Graphique du 27-10-2019

 

Serveur OMMA